createdAt,value
2017-11-25T00:00:21.021Z,70.16
2017-11-25T00:00:50.056Z,70.26
2017-11-25T00:01:18.109Z,70.16
2017-11-25T00:01:46.180Z,70.16
2017-11-25T00:02:14.350Z,70.16
2017-11-25T00:02:42.527Z,70.16
2017-11-25T00:03:11.161Z,70.26
2017-11-25T00:03:39.225Z,70.36
2017-11-25T00:04:07.302Z,70.06
2017-11-25T00:04:35.155Z,70.06
2017-11-25T00:05:03.148Z,70.74
2017-11-25T00:05:31.609Z,71.7
2017-11-25T00:05:59.591Z,71.51
2017-11-25T00:06:27.561Z,71.61
2017-11-25T00:06:55.656Z,72.38
2017-11-25T00:07:24.174Z,73.25
2017-11-25T00:07:52.291Z,73.06
2017-11-25T00:08:20.560Z,74.02
2017-11-25T00:08:48.727Z,73.73
2017-11-25T00:09:16.867Z,74.69
2017-11-25T00:09:45.368Z,74.51
2017-11-25T00:10:13.444Z,74.02
2017-11-25T00:10:41.537Z,74.51
2017-11-25T00:11:10.184Z,74.41
2017-11-25T00:11:38.306Z,74.69
2017-11-25T00:12:07.450Z,74.51
2017-11-25T00:12:35.681Z,74.99
2017-11-25T00:13:03.779Z,74.89
2017-11-25T00:13:32.254Z,75.37
2017-11-25T00:14:00.445Z,75.67
2017-11-25T00:14:28.693Z,75.67
2017-11-25T00:14:56.878Z,75.43
2017-11-25T00:15:24.948Z,75.37
2017-11-25T00:15:53.278Z,75.76
2017-11-25T00:16:21.437Z,75.57
2017-11-25T00:16:49.633Z,75.05
2017-11-25T00:17:32.174Z,75.85
2017-11-25T00:18:00.656Z,75.57
2017-11-25T00:18:28.715Z,75.43
2017-11-25T00:18:56.722Z,76.01
2017-11-25T00:19:24.789Z,76.3
2017-11-25T00:19:53.115Z,76.78
2017-11-25T00:20:21.239Z,76.59
2017-11-25T00:20:49.273Z,76.3
2017-11-25T00:21:17.305Z,76.3
2017-11-25T00:21:45.411Z,76.01
2017-11-25T00:22:13.512Z,75.92
2017-11-25T00:22:41.602Z,76.88
2017-11-25T00:23:09.919Z,76.5
2017-11-25T00:23:38.027Z,76.68
2017-11-25T00:24:06.262Z,75.92
2017-11-25T00:24:34.357Z,75.43
2017-11-25T00:25:02.381Z,74.85
2017-11-25T00:25:30.462Z,74.37
2017-11-25T00:25:58.957Z,74.66
2017-11-25T00:26:27.141Z,74.27
2017-11-25T00:26:55.098Z,74.27
2017-11-25T00:27:23.151Z,74.47
2017-11-25T00:27:51.202Z,74.66
2017-11-25T00:28:19.165Z,74.37
2017-11-25T00:28:47.248Z,74.66
2017-11-25T00:29:15.503Z,74.85
2017-11-25T00:29:43.357Z,74.47
2017-11-25T00:30:11.468Z,74.66
2017-11-25T00:30:39.682Z,74.37
2017-11-25T00:31:07.739Z,74.37
2017-11-25T00:31:35.924Z,74.85
2017-11-25T00:32:04.157Z,74.66
2017-11-25T00:32:32.339Z,74.66
2017-11-25T00:33:00.910Z,75.05
2017-11-25T00:33:28.984Z,74.95
2017-11-25T00:33:57.190Z,75.3
2017-11-25T00:34:25.539Z,75.82
2017-11-25T00:34:53.681Z,75.4
2017-11-25T00:35:21.795Z,76.01
2017-11-25T00:35:49.964Z,75.88
2017-11-25T00:36:18.118Z,75.78
2017-11-25T00:36:46.347Z,76.17
2017-11-25T00:37:14.402Z,75.59
2017-11-25T00:37:42.476Z,75.68
2017-11-25T00:38:10.828Z,74.76
2017-11-25T00:38:39.078Z,74.82
2017-11-25T00:39:07.123Z,74.62
2017-11-25T00:39:35.205Z,74.33
2017-11-25T00:40:03.179Z,74.72
2017-11-25T00:40:31.220Z,75.34
2017-11-25T00:40:59.349Z,75.34
2017-11-25T00:41:27.548Z,75.3
2017-11-25T00:41:55.748Z,74.47
2017-11-25T00:42:24.004Z,74.76
2017-11-25T00:42:52.155Z,74.66
2017-11-25T00:43:20.405Z,74.76
2017-11-25T00:43:48.283Z,74.47
2017-11-25T00:44:16.436Z,74.66
2017-11-25T00:44:44.823Z,74.76
2017-11-25T00:45:12.915Z,74.57
2017-11-25T00:45:41.471Z,74.52
2017-11-25T00:46:09.634Z,74.76
2017-11-25T00:46:37.692Z,74.85
2017-11-25T00:47:05.812Z,74.85
2017-11-25T00:47:33.998Z,75.01
2017-11-25T00:48:01.968Z,75.01
2017-11-25T00:48:30.076Z,74.72
2017-11-25T00:48:58.247Z,75.1
2017-11-25T00:49:26.432Z,75.3
2017-11-25T00:49:54.750Z,75.4
2017-11-25T00:50:22.941Z,75.4
2017-11-25T00:50:51.033Z,75.59
2017-11-25T00:51:19.165Z,75.4
2017-11-25T00:51:47.403Z,75.88
2017-11-25T00:52:15.455Z,75.88
2017-11-25T00:52:43.427Z,75.68
2017-11-25T00:53:11.562Z,76.17
2017-11-25T00:53:39.779Z,75.4
2017-11-25T00:54:07.944Z,75.49
2017-11-25T00:54:35.888Z,76.07
2017-11-25T00:55:03.955Z,75.68
2017-11-25T00:55:32.014Z,76.07
2017-11-25T00:56:00.303Z,75.4
2017-11-25T00:56:28.483Z,75.68
2017-11-25T00:56:56.705Z,75.4
2017-11-25T00:57:24.793Z,75.68
2017-11-25T00:57:52.850Z,75.01
2017-11-25T00:58:21.100Z,74.91
2017-11-25T00:58:49.041Z,74.91
2017-11-25T00:59:17.389Z,74.33
2017-11-25T00:59:45.482Z,74.14
2017-11-25T01:00:13.457Z,73.85
2017-11-25T01:00:41.633Z,74.43
2017-11-25T01:01:09.679Z,74.52
2017-11-25T01:01:52.705Z,74.62
2017-11-25T01:02:20.872Z,74.82
2017-11-25T01:02:49.140Z,74.05
2017-11-25T01:03:17.207Z,74.72
2017-11-25T01:03:45.748Z,74.72
2017-11-25T01:04:14.042Z,74.82
2017-11-25T01:04:42.106Z,74.43
2017-11-25T01:05:10.138Z,74.62
2017-11-25T01:05:38.270Z,74.33
2017-11-25T01:06:06.463Z,74.62
2017-11-25T01:06:34.620Z,74.58
2017-11-25T01:07:03.209Z,74.91
2017-11-25T01:07:31.361Z,74.33
2017-11-25T01:07:59.762Z,74.05
2017-11-25T01:08:28.002Z,74.52
2017-11-25T01:08:56.422Z,74.33
2017-11-25T01:09:24.391Z,74.05
2017-11-25T01:09:53.665Z,74.43
2017-11-25T01:10:21.839Z,74.72
2017-11-25T01:10:50.198Z,73.75
2017-11-25T01:11:18.540Z,74.05
2017-11-25T01:11:46.695Z,74.43
2017-11-25T01:12:14.872Z,74.52
2017-11-25T01:12:43.504Z,74.24
2017-11-25T01:13:11.588Z,74.14
2017-11-25T01:13:40.034Z,74.72
2017-11-25T01:14:08.607Z,74.33
2017-11-25T01:14:37.217Z,74.62
2017-11-25T01:15:05.374Z,74.62
2017-11-25T01:15:33.517Z,74.62
2017-11-25T01:16:01.608Z,74.72
2017-11-25T01:16:29.763Z,74.43
2017-11-25T01:16:58.108Z,75.4
2017-11-25T01:17:26.286Z,75.2
2017-11-25T01:17:54.405Z,75.2
2017-11-25T01:18:22.496Z,75.4
2017-11-25T01:18:50.988Z,75.97
2017-11-25T01:19:19.159Z,76.07
2017-11-25T01:19:47.314Z,76.42
2017-11-25T01:20:15.522Z,77.03
2017-11-25T01:20:44.116Z,76.9
2017-11-25T01:21:12.295Z,76.93
2017-11-25T01:21:40.448Z,77
2017-11-25T01:22:08.706Z,77.38
2017-11-25T01:22:36.711Z,77.76
2017-11-25T01:23:05.328Z,77.67
2017-11-25T01:23:33.543Z,77.67
2017-11-25T01:24:02.135Z,77.48
2017-11-25T01:24:30.163Z,77.86
2017-11-25T01:24:58.215Z,78.34
2017-11-25T01:25:26.536Z,79.02
2017-11-25T01:25:54.776Z,78.83
2017-11-25T01:26:22.896Z,79.11
2017-11-25T01:26:50.921Z,79.11
2017-11-25T01:27:19.721Z,79.31
2017-11-25T01:27:48.397Z,79.5
2017-11-25T01:28:16.452Z,79.5
2017-11-25T01:28:45.100Z,79.6
2017-11-25T01:29:13.324Z,79.89
2017-11-25T01:29:41.980Z,80.37
2017-11-25T01:30:09.935Z,80.85
2017-11-25T01:30:37.997Z,80.85
2017-11-25T01:31:06.176Z,81.24
2017-11-25T01:31:34.332Z,81.72
2017-11-25T01:32:02.931Z,81.43
2017-11-25T01:32:31.065Z,81.52
2017-11-25T01:32:59.119Z,81.62
2017-11-25T01:33:27.558Z,82.2
2017-11-25T01:33:55.703Z,82.49
2017-11-25T01:34:23.852Z,82.2
2017-11-25T01:34:52.096Z,82.87
2017-11-25T01:35:20.148Z,82.78
2017-11-25T01:35:48.879Z,82.74
2017-11-25T01:36:17.036Z,83.16
2017-11-25T01:36:45.699Z,83.12
2017-11-25T01:37:13.865Z,83.12
2017-11-25T01:37:42.052Z,83.12
2017-11-25T01:38:10.200Z,83.61
2017-11-25T01:38:38.319Z,83.89
2017-11-25T01:39:06.663Z,83.84
2017-11-25T01:39:35.290Z,83.7
2017-11-25T01:40:03.480Z,83.8
2017-11-25T01:40:31.846Z,84.22
2017-11-25T01:40:59.940Z,84.38
2017-11-25T01:41:28.100Z,83.7
2017-11-25T01:41:56.132Z,84.47
2017-11-25T01:42:24.109Z,84.22
2017-11-25T01:42:52.508Z,84.22
2017-11-25T01:43:20.405Z,84.38
2017-11-25T01:43:48.578Z,84.76
2017-11-25T01:44:16.768Z,85.19
2017-11-25T01:44:44.886Z,85.28
2017-11-25T01:45:12.932Z,85.38
2017-11-25T01:45:41.091Z,85.53
2017-11-25T01:46:09.130Z,85.05
2017-11-25T01:46:37.183Z,85.09
2017-11-25T01:47:05.356Z,86.21
2017-11-25T01:47:33.455Z,85.72
2017-11-25T01:48:01.504Z,85.91
2017-11-25T01:48:29.549Z,86.21
2017-11-25T01:48:57.635Z,86.21
2017-11-25T01:49:25.793Z,86.49
2017-11-25T01:49:53.957Z,87.17
2017-11-25T01:50:22.039Z,87.36
2017-11-25T01:50:50.631Z,87.07
2017-11-25T01:51:18.735Z,87.26
2017-11-25T01:51:47.101Z,88.13
2017-11-25T01:52:15.441Z,88.13
2017-11-25T01:52:43.602Z,87.94
2017-11-25T01:53:12.388Z,88.04
2017-11-25T01:53:40.464Z,88.51
2017-11-25T01:54:08.962Z,88.61
2017-11-25T01:54:37.100Z,88.81
2017-11-25T01:55:05.091Z,88.81
2017-11-25T01:55:33.406Z,88.9
2017-11-25T01:56:01.580Z,89
2017-11-25T01:56:29.555Z,89.96
2017-11-25T01:56:57.693Z,89.67
2017-11-25T01:57:26.134Z,90.06
2017-11-25T01:57:54.585Z,90.11
2017-11-25T01:58:22.636Z,90.34
2017-11-25T01:58:50.687Z,90.3
2017-11-25T01:59:18.749Z,90.11
2017-11-25T01:59:46.892Z,90.3
2017-11-25T02:00:15.063Z,90.01
2017-11-25T02:00:43.186Z,90.11
2017-11-25T02:01:11.579Z,91.17
2017-11-25T02:01:39.639Z,90.59
2017-11-25T02:02:07.764Z,90.16
2017-11-25T02:02:35.800Z,90.16
2017-11-25T02:03:03.942Z,90.11
2017-11-25T02:03:32.081Z,90.34
2017-11-25T02:04:00.508Z,90.54
2017-11-25T02:04:28.538Z,90.44
2017-11-25T02:04:56.696Z,91.02
2017-11-25T02:05:24.818Z,91.12
2017-11-25T02:05:53.016Z,90.92
2017-11-25T02:06:21.230Z,91.27
2017-11-25T02:06:49.288Z,91.84
2017-11-25T02:07:17.435Z,92.03
2017-11-25T02:07:45.521Z,91.6
2017-11-25T02:08:13.722Z,91.99
2017-11-25T02:08:42.470Z,92.03
2017-11-25T02:09:10.995Z,91.94
2017-11-25T02:09:39.160Z,92.61
2017-11-25T02:10:07.334Z,92.03
2017-11-25T02:10:35.481Z,92.52
2017-11-25T02:11:03.696Z,92.71
2017-11-25T02:11:31.876Z,93
2017-11-25T02:12:00.032Z,93.19
2017-11-25T02:12:28.206Z,93.67
2017-11-25T02:12:56.370Z,93.57
2017-11-25T02:13:24.526Z,94.15
2017-11-25T02:13:52.676Z,94.06
2017-11-25T02:14:20.853Z,94.25
2017-11-25T02:14:48.998Z,94.34
2017-11-25T02:15:17.183Z,94.73
2017-11-25T02:15:45.381Z,94.82
2017-11-25T02:16:13.532Z,94.73
2017-11-25T02:16:41.594Z,95.6
2017-11-25T02:17:09.732Z,95.31
2017-11-25T02:17:37.883Z,95.21
2017-11-25T02:18:06.336Z,95.5
2017-11-25T02:18:34.406Z,95.4
2017-11-25T02:19:02.903Z,95.69
2017-11-25T02:19:31.159Z,95.6
2017-11-25T02:19:59.440Z,95.98
2017-11-25T02:20:27.393Z,95.98
2017-11-25T02:20:55.439Z,96.08
2017-11-25T02:21:23.740Z,95.5
2017-11-25T02:21:51.981Z,95.79
2017-11-25T02:22:20.375Z,95.6
2017-11-25T02:22:48.488Z,95.6
2017-11-25T02:23:16.630Z,95.79
2017-11-25T02:23:44.798Z,95.12
2017-11-25T02:24:13.040Z,95.4
2017-11-25T02:24:41.293Z,95.12
2017-11-25T02:25:09.344Z,95.6
2017-11-25T02:25:37.520Z,95.5
2017-11-25T02:26:06.454Z,95.5
2017-11-25T02:26:34.803Z,95.6
2017-11-25T02:27:03.312Z,95.6
2017-11-25T02:27:31.406Z,95.6
2017-11-25T02:27:59.557Z,95.98
2017-11-25T02:28:27.580Z,95.6
2017-11-25T02:28:55.722Z,95.69
2017-11-25T02:29:23.942Z,95.79
2017-11-25T02:29:51.869Z,96.46
2017-11-25T02:30:19.875Z,96.66
2017-11-25T02:30:48.022Z,96.56
2017-11-25T02:31:16.557Z,96.17
2017-11-25T02:31:45.116Z,96.85
2017-11-25T02:32:13.293Z,96.37
2017-11-25T02:32:41.370Z,96.66
2017-11-25T02:33:09.432Z,96.66
2017-11-25T02:33:37.558Z,96.37
2017-11-25T02:34:05.938Z,96.37
2017-11-25T02:34:34.130Z,96.46
2017-11-25T02:35:02.660Z,96.37
2017-11-25T02:35:31.420Z,96.17
2017-11-25T02:35:59.663Z,96.46
2017-11-25T02:36:27.805Z,97.52
2017-11-25T02:36:56.027Z,97.33
2017-11-25T02:37:24.021Z,97.42
2017-11-25T02:37:51.987Z,97.42
2017-11-25T02:38:20.037Z,97.04
2017-11-25T02:38:48.162Z,97.42
2017-11-25T02:39:16.313Z,97.42
2017-11-25T02:39:44.585Z,98
2017-11-25T02:40:12.777Z,97.62
2017-11-25T02:40:40.923Z,98.19
2017-11-25T02:41:09.079Z,98.29
2017-11-25T02:41:37.138Z,97.81
2017-11-25T02:42:05.693Z,97.33
2017-11-25T02:42:34.280Z,97.24
2017-11-25T02:43:02.434Z,98.19
2017-11-25T02:43:30.473Z,98.1
2017-11-25T02:43:58.627Z,98.97
2017-11-25T02:44:26.765Z,98.68
2017-11-25T02:44:55.139Z,98.68
2017-11-25T02:45:23.232Z,98.49
2017-11-25T02:45:51.201Z,98.97
2017-11-25T02:46:19.233Z,99.35
2017-11-25T02:46:47.346Z,99.26
2017-11-25T02:47:15.933Z,99.26
2017-11-25T02:47:44.127Z,98.97
2017-11-25T02:48:12.221Z,98.77
2017-11-25T02:48:40.464Z,99.16
2017-11-25T02:49:08.628Z,99.16
2017-11-25T02:49:36.690Z,98.77
2017-11-25T02:50:04.793Z,98.29
2017-11-25T02:50:33.368Z,98.77
2017-11-25T02:51:01.669Z,98.58
2017-11-25T02:51:29.738Z,98.58
2017-11-25T02:51:57.910Z,98.49
2017-11-25T02:52:26.431Z,98.97
2017-11-25T02:52:54.489Z,99.16
2017-11-25T02:53:22.674Z,99.06
2017-11-25T02:53:50.907Z,99.35
2017-11-25T02:54:19.127Z,98.97
2017-11-25T02:54:47.462Z,98.77
2017-11-25T02:55:15.645Z,99.74
2017-11-25T02:55:43.823Z,99.16
2017-11-25T02:56:12.341Z,99.26
2017-11-25T02:56:40.525Z,98
2017-11-25T02:57:08.576Z,99.16
2017-11-25T02:57:37.066Z,99.64
2017-11-25T02:58:05.290Z,98.97
2017-11-25T02:58:33.374Z,99.26
2017-11-25T02:59:01.765Z,99.74
2017-11-25T02:59:29.965Z,99.74
2017-11-25T02:59:58.075Z,99.99
2017-11-25T03:00:26.143Z,99.35
2017-11-25T03:00:54.318Z,98.87
2017-11-25T03:01:22.730Z,99.26
2017-11-25T03:01:51.008Z,99.93
2017-11-25T03:02:18.990Z,98.97
2017-11-25T03:02:47.027Z,98.97
2017-11-25T03:03:15.171Z,99.35
2017-11-25T03:03:43.322Z,99.64
2017-11-25T03:04:11.500Z,99.99
2017-11-25T03:04:40.114Z,99.93
2017-11-25T03:05:08.258Z,99.74
2017-11-25T03:05:36.330Z,99.99
2017-11-25T03:06:04.525Z,99.99
2017-11-25T03:06:32.682Z,99.99
2017-11-25T03:07:00.764Z,99.99
2017-11-25T03:07:28.748Z,99.99
2017-11-25T03:07:56.833Z,99.99
2017-11-25T03:08:24.857Z,99.99
2017-11-25T03:08:53.549Z,99.99
2017-11-25T03:09:21.790Z,99.99
2017-11-25T03:09:49.983Z,99.99
2017-11-25T03:10:18.306Z,99.99
2017-11-25T03:10:46.167Z,99.99
2017-11-25T03:11:14.587Z,99.99
2017-11-25T03:11:42.947Z,99.99
2017-11-25T03:12:11.244Z,99.99
2017-11-25T03:12:39.386Z,99.99
2017-11-25T03:13:07.561Z,99.99
2017-11-25T03:13:35.694Z,99.99
2017-11-25T03:14:04.152Z,99.99
2017-11-25T03:14:32.066Z,99.99
2017-11-25T03:15:00.783Z,99.99
2017-11-25T03:15:28.840Z,99.99
2017-11-25T03:15:57.032Z,99.99
2017-11-25T03:16:26.407Z,99.99
2017-11-25T03:16:54.449Z,99.99
2017-11-25T03:17:22.923Z,99.99
2017-11-25T03:17:51.135Z,99.99
2017-11-25T03:18:19.173Z,99.99
2017-11-25T03:18:47.172Z,99.99
2017-11-25T03:19:15.343Z,99.99
2017-11-25T03:19:43.417Z,99.99
2017-11-25T03:20:11.944Z,99.99
2017-11-25T03:20:40.045Z,99.99
2017-11-25T03:21:08.981Z,99.99
2017-11-25T03:21:37.054Z,99.99
2017-11-25T03:22:05.112Z,99.99
2017-11-25T03:22:33.074Z,99.99
2017-11-25T03:23:01.223Z,99.99
2017-11-25T03:23:29.910Z,99.99
2017-11-25T03:23:57.977Z,99.99
2017-11-25T03:24:26.154Z,99.99
2017-11-25T03:24:54.222Z,99.99
2017-11-25T03:25:22.397Z,99.99
2017-11-25T03:25:50.657Z,99.99
2017-11-25T03:26:18.811Z,99.99
2017-11-25T03:26:46.831Z,99.99
2017-11-25T03:27:15.339Z,99.99
2017-11-25T03:27:44.000Z,99.99
2017-11-25T03:28:12.165Z,99.99
2017-11-25T03:28:40.411Z,99.99
2017-11-25T03:29:08.717Z,99.99
2017-11-25T03:29:36.788Z,99.99
2017-11-25T03:30:04.949Z,99.99
2017-11-25T03:30:33.083Z,99.99
2017-11-25T03:31:01.135Z,99.99
2017-11-25T03:31:29.164Z,99.99
2017-11-25T03:31:57.415Z,99.99
2017-11-25T03:32:25.531Z,99.99
2017-11-25T03:32:53.631Z,99.99
2017-11-25T03:33:21.806Z,99.99
2017-11-25T03:33:49.837Z,99.99
2017-11-25T03:34:18.048Z,99.99
2017-11-25T03:34:46.211Z,99.99
2017-11-25T03:35:14.162Z,99.99
2017-11-25T03:35:42.227Z,99.99
2017-11-25T03:36:10.401Z,99.99
2017-11-25T03:36:38.673Z,99.99
2017-11-25T03:37:06.860Z,99.99
2017-11-25T03:37:34.901Z,99.99
2017-11-25T03:38:03.370Z,99.99
2017-11-25T03:38:31.498Z,99.99
2017-11-25T03:38:59.574Z,99.99
2017-11-25T03:39:28.841Z,99.99
2017-11-25T03:39:57.222Z,99.99
2017-11-25T03:40:25.385Z,99.99
2017-11-25T03:40:53.515Z,99.99
2017-11-25T03:41:21.580Z,99.99
2017-11-25T03:41:49.769Z,99.99
2017-11-25T03:42:17.873Z,99.99
2017-11-25T03:42:46.065Z,99.99
2017-11-25T03:43:14.551Z,99.99
2017-11-25T03:43:42.598Z,99.99
2017-11-25T03:44:10.667Z,99.99
2017-11-25T03:44:39.047Z,99.99
2017-11-25T03:45:07.211Z,99.99
2017-11-25T03:45:35.262Z,99.99
2017-11-25T03:46:03.340Z,99.99
2017-11-25T03:46:31.520Z,99.99
2017-11-25T03:46:59.472Z,99.99
2017-11-25T03:47:27.650Z,99.99
2017-11-25T03:47:55.738Z,99.99
2017-11-25T03:48:23.777Z,99.99
2017-11-25T03:48:52.112Z,99.99
2017-11-25T03:49:20.159Z,99.99
2017-11-25T03:49:48.291Z,99.99
2017-11-25T03:50:16.358Z,99.99
2017-11-25T03:50:44.530Z,99.99
2017-11-25T03:51:12.797Z,99.99
2017-11-25T03:51:40.981Z,99.99
2017-11-25T03:52:09.273Z,99.99
2017-11-25T03:52:37.776Z,99.99
2017-11-25T03:53:05.828Z,99.99
2017-11-25T03:53:34.051Z,99.99
2017-11-25T03:54:02.206Z,99.99
2017-11-25T03:54:30.290Z,99.99
2017-11-25T03:54:58.344Z,99.99
2017-11-25T03:55:27.317Z,99.99
2017-11-25T03:55:55.464Z,99.99
2017-11-25T03:56:23.888Z,99.99
2017-11-25T03:56:51.964Z,99.99
2017-11-25T03:57:20.148Z,99.99
2017-11-25T03:57:48.473Z,99.99
2017-11-25T03:58:16.653Z,99.99
2017-11-25T03:58:44.720Z,99.99
2017-11-25T03:59:12.888Z,99.99
2017-11-25T03:59:41.054Z,99.99
2017-11-25T04:00:09.018Z,99.99
2017-11-25T04:00:37.484Z,99.99
2017-11-25T04:01:05.607Z,99.99
2017-11-25T04:01:33.956Z,99.99
2017-11-25T04:02:02.106Z,99.99
2017-11-25T04:02:30.251Z,99.99
2017-11-25T04:02:58.466Z,99.99
2017-11-25T04:03:26.657Z,99.99
2017-11-25T04:03:54.726Z,99.99
2017-11-25T04:04:23.401Z,99.99
2017-11-25T04:04:51.986Z,99.99
2017-11-25T04:05:20.069Z,99.99
2017-11-25T04:05:48.311Z,99.99
2017-11-25T04:06:16.790Z,99.99
2017-11-25T04:06:44.916Z,99.99
2017-11-25T04:07:12.989Z,99.99
2017-11-25T04:07:41.601Z,99.99
2017-11-25T04:08:09.650Z,99.99
2017-11-25T04:08:37.694Z,99.99
2017-11-25T04:09:05.838Z,99.99
2017-11-25T04:09:34.012Z,99.99
2017-11-25T04:10:02.114Z,99.99
2017-11-25T04:10:30.184Z,99.99
2017-11-25T04:10:58.836Z,99.99
2017-11-25T04:11:26.978Z,99.99
2017-11-25T04:11:55.130Z,99.99
2017-11-25T04:12:23.275Z,99.99
2017-11-25T04:12:51.446Z,99.99
2017-11-25T04:13:19.807Z,99.99
2017-11-25T04:13:47.868Z,99.99
2017-11-25T04:14:15.832Z,99.99
2017-11-25T04:14:44.429Z,99.99
2017-11-25T04:15:13.188Z,99.99
2017-11-25T04:15:41.594Z,99.99
2017-11-25T04:16:09.739Z,99.99
2017-11-25T04:16:37.997Z,99.99
2017-11-25T04:17:06.189Z,99.99
2017-11-25T04:17:34.627Z,99.99
2017-11-25T04:18:02.815Z,99.99
2017-11-25T04:18:31.472Z,99.99
2017-11-25T04:18:59.598Z,99.99
2017-11-25T04:19:27.977Z,99.99
2017-11-25T04:19:56.169Z,99.99
2017-11-25T04:20:24.247Z,99.99
2017-11-25T04:20:52.767Z,99.99
2017-11-25T04:21:20.726Z,99.99
2017-11-25T04:21:48.767Z,99.99
2017-11-25T04:22:17.002Z,99.99
2017-11-25T04:22:45.053Z,99.99
2017-11-25T04:23:13.222Z,99.99
2017-11-25T04:23:41.361Z,99.99
2017-11-25T04:24:10.262Z,99.99
2017-11-25T04:24:38.369Z,99.99
2017-11-25T04:25:06.515Z,99.99
2017-11-25T04:25:34.686Z,99.99
2017-11-25T04:26:02.922Z,99.99
2017-11-25T04:26:30.958Z,99.99
2017-11-25T04:26:59.073Z,99.99
2017-11-25T04:27:27.798Z,99.99
2017-11-25T04:27:55.905Z,99.99
2017-11-25T04:28:23.850Z,99.99
2017-11-25T04:28:52.096Z,99.99
2017-11-25T04:29:20.271Z,99.99
2017-11-25T04:29:49.183Z,99.99
2017-11-25T04:30:17.519Z,99.99
2017-11-25T04:30:45.460Z,99.99
2017-11-25T04:31:13.626Z,99.99
2017-11-25T04:31:42.021Z,99.99
2017-11-25T04:32:10.538Z,99.99
2017-11-25T04:32:38.614Z,99.99
2017-11-25T04:33:06.764Z,99.99
2017-11-25T04:33:34.724Z,99.99
2017-11-25T04:34:02.897Z,99.99
2017-11-25T04:34:30.996Z,99.99
2017-11-25T04:34:59.263Z,99.99
2017-11-25T04:35:27.411Z,99.99
2017-11-25T04:35:55.606Z,99.99
2017-11-25T04:36:23.548Z,99.99
2017-11-25T04:36:51.598Z,99.99
2017-11-25T04:37:20.099Z,99.99
2017-11-25T04:37:48.264Z,99.99
2017-11-25T04:38:16.395Z,99.99
2017-11-25T04:38:45.635Z,99.99
2017-11-25T04:39:13.795Z,99.99
2017-11-25T04:39:42.388Z,99.99
2017-11-25T04:40:10.602Z,99.99
2017-11-25T04:40:38.981Z,99.99
2017-11-25T04:41:08.097Z,99.99
2017-11-25T04:41:36.571Z,99.99
2017-11-25T04:42:04.721Z,99.99
2017-11-25T04:42:32.799Z,99.99
2017-11-25T04:43:00.936Z,99.99
2017-11-25T04:43:29.564Z,99.99
2017-11-25T04:43:57.830Z,99.99
2017-11-25T04:44:25.918Z,99.99
2017-11-25T04:44:54.160Z,99.99
2017-11-25T04:45:22.302Z,99.99
2017-11-25T04:45:50.602Z,99.99
2017-11-25T04:46:18.816Z,99.99
2017-11-25T04:46:47.032Z,99.99
2017-11-25T04:47:15.129Z,99.99
2017-11-25T04:47:43.418Z,99.99
2017-11-25T04:48:11.605Z,99.99
2017-11-25T04:48:39.658Z,99.99
2017-11-25T04:49:07.790Z,99.99
2017-11-25T04:49:35.913Z,99.99
2017-11-25T04:50:04.230Z,99.99
2017-11-25T04:50:32.641Z,99.99
2017-11-25T04:51:00.829Z,99.99
2017-11-25T04:51:28.970Z,99.99
2017-11-25T04:51:57.163Z,99.99
2017-11-25T04:52:25.292Z,99.99
2017-11-25T04:52:53.367Z,99.99
2017-11-25T04:53:21.482Z,99.99
2017-11-25T04:53:49.648Z,99.99
2017-11-25T04:54:18.379Z,99.99
2017-11-25T04:54:47.175Z,99.99
2017-11-25T04:55:15.277Z,99.99
2017-11-25T04:55:43.432Z,99.99
2017-11-25T04:56:11.691Z,99.99
2017-11-25T04:56:40.195Z,99.99
2017-11-25T04:57:08.689Z,99.99
2017-11-25T04:57:37.202Z,99.99
2017-11-25T04:58:05.247Z,99.99
2017-11-25T04:58:33.336Z,99.99
2017-11-25T04:59:01.469Z,99.99
2017-11-25T04:59:29.583Z,99.99
2017-11-25T04:59:57.977Z,99.99
2017-11-25T05:00:26.456Z,99.99
2017-11-25T05:00:55.273Z,99.99
2017-11-25T05:01:23.438Z,99.99
2017-11-25T05:01:51.629Z,99.99
2017-11-25T05:02:19.651Z,99.99
2017-11-25T05:02:47.822Z,99.99
2017-11-25T05:03:15.976Z,99.99
2017-11-25T05:03:44.166Z,99.99
2017-11-25T05:04:12.336Z,99.99
2017-11-25T05:04:40.471Z,99.99
2017-11-25T05:05:08.644Z,99.99
2017-11-25T05:05:36.805Z,99.99
2017-11-25T05:06:04.961Z,99.99
2017-11-25T05:06:33.764Z,99.99
2017-11-25T05:07:02.338Z,99.99
2017-11-25T05:07:30.713Z,99.99
2017-11-25T05:07:58.862Z,99.99
2017-11-25T05:08:26.918Z,99.99
2017-11-25T05:08:55.092Z,99.99
2017-11-25T05:09:23.798Z,99.99
2017-11-25T05:09:52.190Z,99.99
2017-11-25T05:10:20.286Z,99.99
2017-11-25T05:10:48.801Z,99.99
2017-11-25T05:11:17.049Z,99.99
2017-11-25T05:11:45.238Z,99.99
2017-11-25T05:12:13.355Z,99.99
2017-11-25T05:12:41.482Z,99.99
2017-11-25T05:13:09.434Z,99.99
2017-11-25T05:13:37.634Z,99.99
2017-11-25T05:14:05.786Z,99.99
2017-11-25T05:14:33.777Z,99.99
2017-11-25T05:15:01.846Z,99.99
2017-11-25T05:15:29.997Z,99.99
2017-11-25T05:15:58.861Z,99.99
2017-11-25T05:16:27.171Z,99.99
2017-11-25T05:16:55.308Z,99.99
2017-11-25T05:17:24.225Z,99.99
2017-11-25T05:17:52.875Z,99.99
2017-11-25T05:18:20.895Z,99.99
2017-11-25T05:18:48.942Z,99.99
2017-11-25T05:19:17.080Z,99.99
2017-11-25T05:19:45.265Z,99.99
2017-11-25T05:20:13.232Z,99.99
2017-11-25T05:20:41.390Z,99.99
2017-11-25T05:21:09.534Z,99.99
2017-11-25T05:21:37.590Z,99.99
2017-11-25T05:22:05.532Z,99.99
2017-11-25T05:22:33.678Z,99.99
2017-11-25T05:23:02.120Z,99.99
2017-11-25T05:23:30.249Z,99.99
2017-11-25T05:23:58.391Z,99.99
2017-11-25T05:24:26.487Z,99.99
2017-11-25T05:24:54.656Z,99.99
2017-11-25T05:25:22.733Z,99.99
2017-11-25T05:25:50.849Z,99.99
2017-11-25T05:26:19.725Z,99.99
2017-11-25T05:26:47.769Z,99.99
2017-11-25T05:27:15.926Z,99.99
2017-11-25T05:27:44.267Z,99.99
2017-11-25T05:28:12.659Z,99.99
2017-11-25T05:28:41.688Z,99.99
2017-11-25T05:29:09.636Z,99.99
2017-11-25T05:29:37.758Z,99.99
2017-11-25T05:30:05.917Z,99.99
2017-11-25T05:30:34.227Z,99.99
2017-11-25T05:31:02.297Z,99.99
2017-11-25T05:31:30.556Z,99.99
2017-11-25T05:31:58.709Z,99.99
2017-11-25T05:32:26.805Z,99.99
2017-11-25T05:32:54.778Z,99.99
2017-11-25T05:33:22.828Z,99.99
2017-11-25T05:33:51.644Z,99.99
2017-11-25T05:34:19.839Z,99.99
2017-11-25T05:34:47.892Z,99.99
2017-11-25T05:35:15.952Z,99.99
2017-11-25T05:35:44.086Z,99.99
2017-11-25T05:36:12.135Z,99.99
2017-11-25T05:36:40.172Z,99.99
2017-11-25T05:37:08.769Z,99.99
2017-11-25T05:37:36.963Z,99.99
2017-11-25T05:38:05.568Z,99.99
2017-11-25T05:38:33.712Z,99.99
2017-11-25T05:39:01.666Z,99.99
2017-11-25T05:39:29.784Z,99.99
2017-11-25T05:39:57.913Z,99.99
2017-11-25T05:40:26.135Z,99.99
2017-11-25T05:40:54.103Z,99.99
2017-11-25T05:41:22.363Z,99.99
2017-11-25T05:41:50.453Z,99.99
2017-11-25T05:42:18.677Z,99.99
2017-11-25T05:42:47.286Z,99.99
2017-11-25T05:43:15.408Z,99.99
2017-11-25T05:43:44.005Z,99.99
2017-11-25T05:44:13.003Z,99.99
2017-11-25T05:44:41.635Z,99.99
2017-11-25T05:45:09.737Z,99.99
2017-11-25T05:45:37.868Z,99.99
2017-11-25T05:46:06.274Z,99.99
2017-11-25T05:46:34.449Z,99.99
2017-11-25T05:47:02.606Z,99.99
2017-11-25T05:47:30.737Z,99.99
2017-11-25T05:47:59.053Z,99.99
2017-11-25T05:48:27.411Z,99.99
2017-11-25T05:48:55.687Z,99.99
2017-11-25T05:49:23.841Z,99.99
2017-11-25T05:49:52.254Z,99.99
2017-11-25T05:50:20.544Z,99.99
2017-11-25T05:50:48.479Z,99.99
2017-11-25T05:51:16.624Z,99.99
2017-11-25T05:51:44.662Z,99.99
2017-11-25T05:52:12.824Z,99.99
2017-11-25T05:52:41.016Z,99.99
2017-11-25T05:53:09.100Z,99.99
2017-11-25T05:53:37.240Z,99.99
2017-11-25T05:54:05.768Z,99.99
2017-11-25T05:54:33.920Z,99.99
2017-11-25T05:55:02.395Z,99.99
2017-11-25T05:55:30.542Z,99.99
2017-11-25T05:55:58.660Z,99.99
2017-11-25T05:56:26.821Z,99.99
2017-11-25T05:56:55.072Z,99.99
2017-11-25T05:57:23.259Z,99.99
2017-11-25T05:57:51.393Z,99.99
2017-11-25T05:58:19.523Z,99.99
2017-11-25T05:58:47.960Z,99.99
2017-11-25T05:59:16.116Z,99.99
2017-11-25T05:59:44.166Z,99.99
2017-11-25T06:00:12.217Z,99.99
2017-11-25T06:00:40.378Z,99.99
2017-11-25T06:01:08.558Z,99.99
2017-11-25T06:01:36.687Z,99.99
2017-11-25T06:02:04.840Z,99.99
2017-11-25T06:02:32.944Z,99.99
2017-11-25T06:03:01.109Z,99.99
2017-11-25T06:03:29.297Z,99.99
2017-11-25T06:03:57.436Z,99.99
2017-11-25T06:04:25.783Z,99.99
2017-11-25T06:04:53.869Z,99.99